Time,TemperatureF,DewpointF,PressureIn,WindDirection,WindDirectionDegrees,WindSpeedMPH,WindSpeedGustMPH,Humidity,HourlyPrecipIn,Conditions,Clouds,dailyrainin,SolarRadiationWatts/m^2,SoftwareType,DateUTC
2013-05-29 00:00:00,42.0,42.0,-100.00,SW,218,9.0,16.0,100,0.00,,,0.27,0.000000,,2013-05-29 07:00:00,
2013-05-29 00:22:00,42.0,42.0,-100.00,SW,218,9.0,16.0,100,0.00,,,0.27,0.000000,,2013-05-29 07:22:00,
2013-05-29 00:34:00,42.0,42.0,-100.00,SW,218,9.0,16.0,100,0.00,,,0.27,0.000000,,2013-05-29 07:34:00,
2013-05-29 00:42:00,42.0,42.0,-100.00,SW,218,9.0,16.0,100,0.00,,,0.27,0.000000,,2013-05-29 07:42:00,
2013-05-29 00:52:00,42.0,42.0,-100.00,SW,218,9.0,16.0,100,0.00,,,0.27,0.000000,,2013-05-29 07:52:00,
2013-05-29 01:00:00,42.0,42.0,-100.00,SSW,198,4.0,12.0,100,0.00,,,0.27,0.000000,,2013-05-29 08:00:00,
2013-05-29 01:22:00,42.0,42.0,-100.00,SSW,198,4.0,12.0,100,0.00,,,0.27,0.000000,,2013-05-29 08:22:00,
2013-05-29 01:32:00,42.0,42.0,-100.00,SSW,198,4.0,12.0,100,0.00,,,0.27,0.000000,,2013-05-29 08:32:00,
2013-05-29 01:42:00,42.0,42.0,-100.00,SSW,198,4.0,12.0,100,0.00,,,0.27,0.000000,,2013-05-29 08:42:00,
2013-05-29 01:52:00,42.0,42.0,-100.00,SSW,198,4.0,12.0,100,0.00,,,0.27,0.000000,,2013-05-29 08:52:00,
2013-05-29 02:00:00,42.0,42.0,-100.00,NNE,33,0.0,5.0,100,0.00,,,0.26,0.000000,,2013-05-29 09:00:00,
2013-05-29 02:22:00,42.0,42.0,-100.00,NNE,33,0.0,5.0,100,0.00,,,0.26,0.000000,,2013-05-29 09:22:00,
2013-05-29 02:33:00,42.0,42.0,-100.00,NNE,33,0.0,5.0,100,0.00,,,0.26,0.000000,,2013-05-29 09:33:00,
2013-05-29 02:42:00,42.0,42.0,-100.00,NNE,33,0.0,5.0,100,0.00,,,0.26,0.000000,,2013-05-29 09:42:00,
2013-05-29 02:52:00,42.0,42.0,-100.00,NNE,33,0.0,5.0,100,0.00,,,0.26,0.000000,,2013-05-29 09:52:00,
2013-05-29 03:00:00,41.0,41.0,-100.00,ENE,58,4.0,7.0,100,0.00,,,0.26,0.000000,,2013-05-29 10:00:00,
2013-05-29 03:22:00,41.0,41.0,-100.00,ENE,58,4.0,7.0,100,0.00,,,0.26,0.000000,,2013-05-29 10:22:00,
2013-05-29 03:33:00,41.0,41.0,-100.00,ENE,58,4.0,7.0,100,0.00,,,0.26,0.000000,,2013-05-29 10:33:00,
2013-05-29 03:42:00,41.0,41.0,-100.00,ENE,58,4.0,7.0,100,0.00,,,0.26,0.000000,,2013-05-29 10:42:00,
2013-05-29 03:53:00,41.0,41.0,-100.00,ENE,58,4.0,7.0,100,0.00,,,0.26,0.000000,,2013-05-29 10:53:00,
2013-05-29 04:00:00,41.0,41.0,-100.00,West,277,0.0,5.0,100,0.04,,,0.28,0.000000,,2013-05-29 11:00:00,
2013-05-29 04:22:00,41.0,41.0,-100.00,West,277,0.0,5.0,100,0.04,,,0.28,0.000000,,2013-05-29 11:22:00,
2013-05-29 04:32:00,41.0,41.0,-100.00,West,277,0.0,5.0,100,0.04,,,0.28,0.000000,,2013-05-29 11:32:00,
2013-05-29 04:42:00,41.0,41.0,-100.00,West,277,0.0,5.0,100,0.04,,,0.28,0.000000,,2013-05-29 11:42:00,
2013-05-29 04:52:00,41.0,41.0,-100.00,West,277,0.0,5.0,100,0.04,,,0.28,0.000000,,2013-05-29 11:52:00,
2013-05-29 05:00:00,41.0,41.0,-100.00,ENE,62,0.0,0.0,100,0.12,,,0.40,0.000000,,2013-05-29 12:00:00,
2013-05-29 05:22:00,41.0,41.0,-100.00,ENE,62,0.0,0.0,100,0.12,,,0.40,0.000000,,2013-05-29 12:22:00,
2013-05-29 05:32:00,41.0,41.0,-100.00,ENE,62,0.0,0.0,100,0.12,,,0.40,0.000000,,2013-05-29 12:32:00,
2013-05-29 05:42:00,41.0,41.0,-100.00,ENE,62,0.0,0.0,100,0.12,,,0.40,0.000000,,2013-05-29 12:42:00,
2013-05-29 05:52:00,41.0,41.0,-100.00,ENE,62,0.0,0.0,100,0.12,,,0.40,0.000000,,2013-05-29 12:52:00,
2013-05-29 06:00:00,40.0,40.0,-100.00,NW,322,1.0,5.0,100,0.04,,,0.43,5.000000,,2013-05-29 13:00:00,
2013-05-29 06:22:00,40.0,40.0,-100.00,NW,322,1.0,5.0,100,0.04,,,0.43,5.000000,,2013-05-29 13:22:00,
2013-05-29 06:32:00,40.0,40.0,-100.00,NW,322,1.0,5.0,100,0.04,,,0.43,5.000000,,2013-05-29 13:32:00,
2013-05-29 06:42:00,40.0,40.0,-100.00,NW,322,1.0,5.0,100,0.04,,,0.43,5.000000,,2013-05-29 13:42:00,
2013-05-29 06:53:00,40.0,40.0,-100.00,NW,322,1.0,5.0,100,0.04,,,0.43,5.000000,,2013-05-29 13:53:00,
2013-05-29 07:00:00,42.0,42.0,-100.00,WSW,240,2.0,8.0,100,0.01,,,0.43,36.000000,,2013-05-29 14:00:00,
2013-05-29 07:22:00,42.0,42.0,-100.00,WSW,240,2.0,8.0,100,0.01,,,0.43,36.000000,,2013-05-29 14:22:00,
2013-05-29 07:32:00,42.0,42.0,-100.00,WSW,240,2.0,8.0,100,0.01,,,0.43,36.000000,,2013-05-29 14:32:00,
2013-05-29 07:42:00,42.0,42.0,-100.00,WSW,240,2.0,8.0,100,0.01,,,0.43,36.000000,,2013-05-29 14:42:00,
2013-05-29 07:52:00,42.0,42.0,-100.00,WSW,240,2.0,8.0,100,0.01,,,0.43,36.000000,,2013-05-29 14:52:00,
2013-05-29 08:00:00,41.0,41.0,-100.00,WSW,238,4.0,11.0,100,0.02,,,0.44,87.000000,,2013-05-29 15:00:00,
2013-05-29 08:22:00,41.0,41.0,-100.00,WSW,238,4.0,11.0,100,0.02,,,0.44,87.000000,,2013-05-29 15:22:00,
2013-05-29 08:33:00,41.0,41.0,-100.00,WSW,238,4.0,11.0,100,0.02,,,0.44,87.000000,,2013-05-29 15:33:00,
2013-05-29 08:42:00,41.0,41.0,-100.00,WSW,238,4.0,11.0,100,0.02,,,0.44,87.000000,,2013-05-29 15:42:00,
2013-05-29 08:53:00,41.0,41.0,-100.00,WSW,238,4.0,11.0,100,0.02,,,0.44,87.000000,,2013-05-29 15:53:00,
2013-05-29 09:00:00,41.0,41.0,-100.00,WSW,238,4.0,11.0,100,0.01,,,0.42,182.000000,,2013-05-29 16:00:00,
2013-05-29 09:22:00,41.0,41.0,-100.00,WSW,238,4.0,11.0,100,0.01,,,0.42,182.000000,,2013-05-29 16:22:00,
2013-05-29 09:33:00,41.0,41.0,-100.00,WSW,238,4.0,11.0,100,0.01,,,0.42,182.000000,,2013-05-29 16:33:00,
2013-05-29 09:42:00,41.0,41.0,-100.00,WSW,238,4.0,11.0,100,0.01,,,0.42,182.000000,,2013-05-29 16:42:00,
2013-05-29 09:52:00,41.0,41.0,-100.00,WSW,238,4.0,11.0,100,0.01,,,0.42,182.000000,,2013-05-29 16:52:00,
2013-05-29 10:00:00,43.0,43.0,-100.00,SW,233,7.0,11.0,100,0.05,,,0.41,196.000000,,2013-05-29 17:00:00,
2013-05-29 10:22:00,43.0,43.0,-100.00,SW,233,7.0,11.0,100,0.05,,,0.41,196.000000,,2013-05-29 17:22:00,
2013-05-29 10:32:00,43.0,43.0,-100.00,SW,233,7.0,11.0,100,0.05,,,0.41,196.000000,,2013-05-29 17:32:00,
2013-05-29 10:42:00,43.0,43.0,-100.00,SW,233,7.0,11.0,100,0.05,,,0.41,196.000000,,2013-05-29 17:42:00,
2013-05-29 10:52:00,43.0,43.0,-100.00,SW,233,7.0,11.0,100,0.05,,,0.41,196.000000,,2013-05-29 17:52:00,
2013-05-29 11:00:00,45.0,45.0,-100.00,SW,219,3.0,10.0,100,0.00,,,0.37,288.000000,,2013-05-29 18:00:00,
2013-05-29 11:22:00,45.0,45.0,-100.00,SW,219,3.0,10.0,100,0.00,,,0.37,288.000000,,2013-05-29 18:22:00,
2013-05-29 11:32:00,45.0,45.0,-100.00,SW,219,3.0,10.0,100,0.00,,,0.37,288.000000,,2013-05-29 18:32:00,
2013-05-29 11:42:00,45.0,45.0,-100.00,SW,219,3.0,10.0,100,0.00,,,0.37,288.000000,,2013-05-29 18:42:00,
2013-05-29 11:52:00,45.0,45.0,-100.00,SW,219,3.0,10.0,100,0.00,,,0.37,288.000000,,2013-05-29 18:52:00,
2013-05-29 12:00:00,46.0,46.0,-100.00,SW,217,4.0,10.0,100,0.01,,,0.36,307.000000,,2013-05-29 19:00:00,
2013-05-29 12:22:00,46.0,46.0,-100.00,SW,217,4.0,10.0,100,0.01,,,0.36,307.000000,,2013-05-29 19:22:00,
2013-05-29 12:32:00,46.0,46.0,-100.00,SW,217,4.0,10.0,100,0.01,,,0.36,307.000000,,2013-05-29 19:32:00,
2013-05-29 12:44:00,46.0,46.0,-100.00,SW,217,4.0,10.0,100,0.01,,,0.36,307.000000,,2013-05-29 19:44:00,
2013-05-29 12:53:00,46.0,46.0,-100.00,SW,217,4.0,10.0,100,0.01,,,0.36,307.000000,,2013-05-29 19:53:00,
2013-05-29 13:00:00,45.0,45.0,-100.00,SSW,208,7.0,13.0,100,0.05,,,0.40,151.000000,,2013-05-29 20:00:00,
2013-05-29 13:23:00,45.0,45.0,-100.00,SSW,208,7.0,13.0,100,0.05,,,0.40,151.000000,,2013-05-29 20:23:00,
2013-05-29 13:33:00,45.0,45.0,-100.00,SSW,208,7.0,13.0,100,0.05,,,0.40,151.000000,,2013-05-29 20:33:00,
2013-05-29 13:42:00,45.0,45.0,-100.00,SSW,208,7.0,13.0,100,0.05,,,0.40,151.000000,,2013-05-29 20:42:00,
2013-05-29 13:52:00,45.0,45.0,-100.00,SSW,208,7.0,13.0,100,0.05,,,0.40,151.000000,,2013-05-29 20:52:00,
2013-05-29 14:00:00,44.0,44.0,-100.00,SW,218,10.0,18.0,100,0.01,,,0.39,190.000000,,2013-05-29 21:00:00,
2013-05-29 14:22:00,44.0,44.0,-100.00,SW,218,10.0,18.0,100,0.01,,,0.39,190.000000,,2013-05-29 21:22:00,
2013-05-29 14:33:00,44.0,44.0,-100.00,SW,218,10.0,18.0,100,0.01,,,0.39,190.000000,,2013-05-29 21:33:00,
2013-05-29 14:44:00,44.0,44.0,-100.00,SW,218,10.0,18.0,100,0.01,,,0.39,190.000000,,2013-05-29 21:44:00,
2013-05-29 14:53:00,44.0,44.0,-100.00,SW,218,10.0,18.0,100,0.01,,,0.39,190.000000,,2013-05-29 21:53:00,
2013-05-29 15:00:00,44.0,44.0,-100.00,SSW,212,12.0,21.0,100,0.00,,,0.39,301.000000,,2013-05-29 22:00:00,
2013-05-29 15:23:00,44.0,44.0,-100.00,SSW,212,12.0,21.0,100,0.00,,,0.39,301.000000,,2013-05-29 22:23:00,
2013-05-29 15:34:00,44.0,44.0,-100.00,SSW,212,12.0,21.0,100,0.00,,,0.39,301.000000,,2013-05-29 22:34:00,
2013-05-29 15:42:00,44.0,44.0,-100.00,SSW,212,12.0,21.0,100,0.00,,,0.39,301.000000,,2013-05-29 22:42:00,
2013-05-29 15:53:00,44.0,44.0,-100.00,SSW,212,12.0,21.0,100,0.00,,,0.39,301.000000,,2013-05-29 22:53:00,
2013-05-29 16:00:00,45.0,45.0,-100.00,SW,217,11.0,20.0,100,0.03,,,0.42,182.000000,,2013-05-29 23:00:00,
2013-05-29 16:22:00,45.0,45.0,-100.00,SW,217,11.0,20.0,100,0.03,,,0.42,182.000000,,2013-05-29 23:22:00,
2013-05-29 16:33:00,45.0,45.0,-100.00,SW,217,11.0,20.0,100,0.03,,,0.42,182.000000,,2013-05-29 23:33:00,
2013-05-29 16:42:00,45.0,45.0,-100.00,SW,217,11.0,20.0,100,0.03,,,0.42,182.000000,,2013-05-29 23:42:00,
2013-05-29 16:53:00,45.0,45.0,-100.00,SW,217,11.0,20.0,100,0.03,,,0.42,182.000000,,2013-05-29 23:53:00,
2013-05-29 17:00:00,43.0,43.0,-100.00,SSW,211,11.0,21.0,100,0.04,,,0.46,109.000000,,2013-05-30 00:00:00,
2013-05-29 17:22:00,43.0,43.0,-100.00,SSW,211,11.0,21.0,100,0.04,,,0.46,109.000000,,2013-05-30 00:22:00,
2013-05-29 17:32:00,43.0,43.0,-100.00,SSW,211,11.0,21.0,100,0.04,,,0.46,109.000000,,2013-05-30 00:32:00,
2013-05-29 17:42:00,43.0,43.0,-100.00,SSW,211,11.0,21.0,100,0.04,,,0.46,109.000000,,2013-05-30 00:42:00,
2013-05-29 17:52:00,43.0,43.0,-100.00,SSW,211,11.0,21.0,100,0.04,,,0.46,109.000000,,2013-05-30 00:52:00,
2013-05-29 18:00:00,43.0,43.0,-100.00,SSW,211,11.0,21.0,100,0.02,,,0.47,87.000000,,2013-05-30 01:00:00,
2013-05-29 18:22:00,43.0,43.0,-100.00,SSW,211,11.0,21.0,100,0.02,,,0.47,87.000000,,2013-05-30 01:22:00,
2013-05-29 18:32:00,43.0,43.0,-100.00,SSW,211,11.0,21.0,100,0.02,,,0.47,87.000000,,2013-05-30 01:32:00,
2013-05-29 18:42:00,43.0,43.0,-100.00,SSW,211,11.0,21.0,100,0.02,,,0.47,87.000000,,2013-05-30 01:42:00,
2013-05-29 18:52:00,43.0,43.0,-100.00,SSW,211,11.0,21.0,100,0.02,,,0.47,87.000000,,2013-05-30 01:52:00,
2013-05-29 19:00:00,44.0,44.0,-100.00,SSW,212,10.0,21.0,100,0.00,,,0.46,63.000000,,2013-05-30 02:00:00,
2013-05-29 19:22:00,44.0,44.0,-100.00,SSW,212,10.0,21.0,100,0.00,,,0.46,63.000000,,2013-05-30 02:22:00,
2013-05-29 19:32:00,44.0,44.0,-100.00,SSW,212,10.0,21.0,100,0.00,,,0.46,63.000000,,2013-05-30 02:32:00,
2013-05-29 19:42:00,44.0,44.0,-100.00,SSW,212,10.0,21.0,100,0.00,,,0.46,63.000000,,2013-05-30 02:42:00,
2013-05-29 19:52:00,44.0,44.0,-100.00,SSW,212,10.0,21.0,100,0.00,,,0.46,63.000000,,2013-05-30 02:52:00,
2013-05-29 20:00:00,42.0,42.0,-100.00,SSW,210,8.0,21.0,100,0.05,,,0.50,23.000000,,2013-05-30 03:00:00,
2013-05-29 20:21:00,42.0,42.0,-100.00,SSW,210,8.0,21.0,100,0.05,,,0.50,23.000000,,2013-05-30 03:21:00,
2013-05-29 20:33:00,42.0,42.0,-100.00,SSW,210,8.0,21.0,100,0.05,,,0.50,23.000000,,2013-05-30 03:33:00,
2013-05-29 20:43:00,42.0,42.0,-100.00,SSW,210,8.0,21.0,100,0.05,,,0.50,23.000000,,2013-05-30 03:43:00,
2013-05-29 20:53:00,42.0,42.0,-100.00,SSW,210,8.0,21.0,100,0.05,,,0.50,23.000000,,2013-05-30 03:53:00,
2013-05-29 21:00:00,42.0,42.0,-100.00,SSW,211,8.0,15.0,100,0.07,,,0.57,13.000000,,2013-05-30 04:00:00,
2013-05-29 21:23:00,42.0,42.0,-100.00,SSW,211,8.0,15.0,100,0.07,,,0.57,13.000000,,2013-05-30 04:23:00,
2013-05-29 21:33:00,42.0,42.0,-100.00,SSW,211,8.0,15.0,100,0.07,,,0.57,13.000000,,2013-05-30 04:33:00,
2013-05-29 21:42:00,42.0,42.0,-100.00,SSW,211,8.0,15.0,100,0.07,,,0.57,13.000000,,2013-05-30 04:42:00,
2013-05-29 21:53:00,42.0,42.0,-100.00,SSW,211,8.0,15.0,100,0.07,,,0.57,13.000000,,2013-05-30 04:53:00,
2013-05-29 22:00:00,43.0,43.0,-100.00,SW,221,10.0,18.0,100,0.03,,,0.60,0.000000,,2013-05-30 05:00:00,
2013-05-29 22:22:00,43.0,43.0,-100.00,SW,221,10.0,18.0,100,0.03,,,0.60,0.000000,,2013-05-30 05:22:00,
2013-05-29 22:32:00,43.0,43.0,-100.00,SW,221,10.0,18.0,100,0.03,,,0.60,0.000000,,2013-05-30 05:32:00,
2013-05-29 22:42:00,43.0,43.0,-100.00,SW,221,10.0,18.0,100,0.03,,,0.60,0.000000,,2013-05-30 05:42:00,
2013-05-29 22:52:00,43.0,43.0,-100.00,SW,221,10.0,18.0,100,0.03,,,0.60,0.000000,,2013-05-30 05:52:00,
2013-05-29 23:00:00,41.0,41.0,-100.00,SW,221,10.0,18.0,100,0.00,,,0.60,0.000000,,2013-05-30 06:00:00,
2013-05-29 23:22:00,41.0,41.0,-100.00,SW,221,10.0,18.0,100,0.00,,,0.60,0.000000,,2013-05-30 06:22:00,
2013-05-29 23:32:00,41.0,41.0,-100.00,SW,221,10.0,18.0,100,0.00,,,0.60,0.000000,,2013-05-30 06:32:00,
2013-05-29 23:42:00,41.0,41.0,-100.00,SW,221,10.0,18.0,100,0.00,,,0.60,0.000000,,2013-05-30 06:42:00,
2013-05-29 23:52:00,41.0,41.0,-100.00,SW,221,10.0,18.0,100,0.00,,,0.60,0.000000,,2013-05-30 06:52:00,